createdAt,value
2019-03-10T00:02:16.525Z,2.27
2019-03-10T00:04:44.186Z,2.33
2019-03-10T00:07:10.770Z,2.13
2019-03-10T00:09:37.314Z,2.50
2019-03-10T00:12:04.424Z,2.37
2019-03-10T00:14:30.960Z,2.37
2019-03-10T00:16:57.718Z,2.27
2019-03-10T00:19:24.792Z,3.07
2019-03-10T00:21:51.348Z,2.33
2019-03-10T00:24:17.995Z,2.47
2019-03-10T00:26:44.852Z,2.47
2019-03-10T00:29:16.494Z,4.15
2019-03-10T00:31:43.190Z,3.00
2019-03-10T00:34:10.158Z,3.27
2019-03-10T00:36:36.759Z,3.63
2019-03-10T00:39:54.108Z,3.07
2019-03-10T00:43:01.035Z,3.57
2019-03-10T00:46:11.206Z,2.87
2019-03-10T00:49:25.549Z,3.03
2019-03-10T00:52:19.694Z,2.13
2019-03-10T00:54:46.342Z,3.10
2019-03-10T00:57:12.914Z,2.50
2019-03-10T00:59:39.510Z,2.90
2019-03-10T01:02:06.119Z,2.00
2019-03-10T01:04:32.826Z,2.60
2019-03-10T01:07:01.552Z,2.40
2019-03-10T01:09:28.052Z,2.20
2019-03-10T01:11:54.837Z,2.27
2019-03-10T01:14:21.545Z,1.93
2019-03-10T01:16:49.169Z,2.77
2019-03-10T01:19:15.828Z,2.23
2019-03-10T01:21:43.919Z,2.50
2019-03-10T01:24:10.687Z,1.93
2019-03-10T01:26:37.672Z,2.40
2019-03-10T01:29:04.557Z,2.03
2019-03-10T01:31:44.594Z,2.10
2019-03-10T01:34:37.818Z,1.83
2019-03-10T01:37:04.450Z,2.10
2019-03-10T01:39:32.082Z,2.20
2019-03-10T01:41:58.754Z,1.47
2019-03-10T01:44:25.284Z,1.60
2019-03-10T01:46:51.892Z,2.00
2019-03-10T01:49:18.874Z,1.27
2019-03-10T01:51:45.433Z,2.10
2019-03-10T01:54:12.395Z,1.50
2019-03-10T01:56:38.927Z,1.73
2019-03-10T01:59:05.476Z,1.70
2019-03-10T02:01:32.015Z,1.43
2019-03-10T02:03:58.650Z,1.70
2019-03-10T02:06:25.291Z,1.40
2019-03-10T02:08:52.178Z,1.40
2019-03-10T02:11:18.815Z,1.80
2019-03-10T02:13:45.664Z,1.40
2019-03-10T02:16:12.501Z,1.80
2019-03-10T02:18:39.058Z,1.23
2019-03-10T02:21:06.917Z,1.50
2019-03-10T02:23:33.564Z,1.93
2019-03-10T02:26:00.398Z,1.73
2019-03-10T02:28:27.003Z,2.30
2019-03-10T02:30:53.582Z,1.40
2019-03-10T02:33:20.431Z,1.50
2019-03-10T02:35:46.960Z,1.60
2019-03-10T02:38:13.569Z,1.90
2019-03-10T02:40:43.258Z,2.27
2019-03-10T02:43:09.998Z,2.00
2019-03-10T02:45:36.693Z,2.03
2019-03-10T02:48:03.436Z,2.70
2019-03-10T02:50:30.011Z,2.73
2019-03-10T02:52:56.616Z,2.83
2019-03-10T02:55:23.180Z,2.60
2019-03-10T02:57:50.072Z,2.10
2019-03-10T03:00:16.841Z,2.80
2019-03-10T03:02:43.470Z,2.70
2019-03-10T03:05:10.242Z,2.73
2019-03-10T03:07:36.988Z,2.70
2019-03-10T03:10:04.104Z,2.63
2019-03-10T03:12:31.741Z,3.63
2019-03-10T03:14:58.283Z,3.43
2019-03-10T03:17:24.855Z,4.03
2019-03-10T03:19:51.440Z,3.00
2019-03-10T03:22:18.369Z,3.37
2019-03-10T03:24:45.055Z,3.97
2019-03-10T03:27:11.684Z,3.93
2019-03-10T03:29:38.241Z,3.50
2019-03-10T03:32:05.052Z,3.63
2019-03-10T03:34:31.645Z,3.07
2019-03-10T03:36:58.595Z,3.50
2019-03-10T03:39:31.023Z,3.93
2019-03-10T03:41:57.589Z,3.70
2019-03-10T03:44:24.383Z,2.63
2019-03-10T03:46:51.171Z,3.53
2019-03-10T03:49:17.733Z,4.00
2019-03-10T03:51:44.362Z,3.40
2019-03-10T03:54:10.846Z,2.60
2019-03-10T03:56:37.459Z,3.80
2019-03-10T03:59:04.416Z,3.40
2019-03-10T04:01:44.487Z,3.43
2019-03-10T04:04:11.083Z,3.13
2019-03-10T04:06:37.691Z,3.17
2019-03-10T04:09:06.099Z,3.23
2019-03-10T04:11:32.617Z,3.50
2019-03-10T04:13:59.221Z,3.20
2019-03-10T04:16:30.982Z,3.63
2019-03-10T04:18:57.791Z,3.17
2019-03-10T04:21:24.589Z,3.70
2019-03-10T04:23:51.192Z,3.63
2019-03-10T04:26:17.904Z,3.03
2019-03-10T04:28:44.533Z,3.17
2019-03-10T04:31:11.452Z,2.77
2019-03-10T04:33:38.424Z,2.93
2019-03-10T04:36:05.290Z,2.90
2019-03-10T04:38:31.873Z,4.83
2019-03-10T04:40:58.688Z,3.43
2019-03-10T04:43:25.523Z,2.80
2019-03-10T04:45:52.051Z,3.17
2019-03-10T04:48:18.606Z,3.47
2019-03-10T04:50:45.639Z,2.80
2019-03-10T04:53:12.527Z,3.50
2019-03-10T04:55:58.948Z,3.43
2019-03-10T04:58:25.560Z,2.97
2019-03-10T05:00:54.030Z,3.17
2019-03-10T05:03:21.004Z,4.77
2019-03-10T05:05:48.907Z,4.33
2019-03-10T05:08:15.730Z,3.70
2019-03-10T05:10:42.393Z,3.67
2019-03-10T05:13:09.112Z,3.87
2019-03-10T05:15:35.942Z,3.90
2019-03-10T05:18:02.562Z,4.67
2019-03-10T05:20:29.232Z,2.90
2019-03-10T05:23:27.036Z,3.70
2019-03-10T05:25:54.103Z,3.57
2019-03-10T05:28:20.729Z,4.33
2019-03-10T05:30:47.283Z,3.97
2019-03-10T05:33:14.029Z,3.40
2019-03-10T05:35:41.800Z,5.47
2019-03-10T05:38:08.448Z,3.70
2019-03-10T05:40:36.679Z,3.77
2019-03-10T05:43:03.346Z,3.67
2019-03-10T05:45:30.034Z,3.30
2019-03-10T05:47:59.365Z,2.50
2019-03-10T05:50:26.182Z,3.23
2019-03-10T05:52:53.280Z,3.13
2019-03-10T05:55:22.117Z,2.87
2019-03-10T05:57:48.903Z,3.60
2019-03-10T06:00:15.828Z,3.43
2019-03-10T06:02:42.542Z,2.97
2019-03-10T06:05:09.327Z,3.90
2019-03-10T06:07:36.228Z,3.47
2019-03-10T06:10:04.565Z,3.63
2019-03-10T06:12:31.628Z,2.93
2019-03-10T06:14:58.637Z,3.93
2019-03-10T06:17:26.742Z,3.33
2019-03-10T06:19:53.538Z,3.13
2019-03-10T06:22:20.168Z,2.90
2019-03-10T06:24:46.870Z,2.93
2019-03-10T06:27:15.152Z,2.70
2019-03-10T06:29:42.338Z,3.10
2019-03-10T06:32:09.281Z,2.63
2019-03-10T06:34:38.193Z,3.10
2019-03-10T06:37:05.299Z,4.00
2019-03-10T06:39:32.165Z,3.07
2019-03-10T06:41:58.995Z,3.40
2019-03-10T06:44:25.554Z,2.90
2019-03-10T06:46:52.353Z,2.93
2019-03-10T06:49:19.145Z,3.70
2019-03-10T06:51:48.612Z,2.87
2019-03-10T06:54:15.748Z,3.10
2019-03-10T06:56:42.682Z,3.33
2019-03-10T06:59:12.888Z,3.23
2019-03-10T07:01:39.567Z,3.20
2019-03-10T07:04:08.894Z,2.97
2019-03-10T07:06:35.990Z,2.63
2019-03-10T07:09:04.443Z,2.50
2019-03-10T07:11:31.176Z,2.67
2019-03-10T07:13:57.983Z,2.80
2019-03-10T07:16:27.855Z,3.33
2019-03-10T07:18:55.586Z,3.13
2019-03-10T07:21:22.213Z,2.97
2019-03-10T07:23:48.953Z,3.50
2019-03-10T07:26:15.604Z,3.10
2019-03-10T07:28:50.409Z,3.27
2019-03-10T07:31:42.441Z,3.00
2019-03-10T07:34:27.233Z,2.93
2019-03-10T07:37:16.506Z,3.03
2019-03-10T07:40:01.986Z,3.57
2019-03-10T07:42:57.354Z,2.80
2019-03-10T07:48:38.438Z,2.77
2019-03-10T07:51:37.656Z,2.90
2019-03-10T07:54:35.929Z,3.40
2019-03-10T07:57:12.889Z,1.80
2019-03-10T07:59:59.395Z,3.23
2019-03-10T08:02:55.458Z,2.53
2019-03-10T08:05:30.007Z,2.20
2019-03-10T08:08:25.348Z,2.07
2019-03-10T08:11:24.486Z,2.97
2019-03-10T08:14:01.085Z,2.30
2019-03-10T08:17:05.167Z,2.77
2019-03-10T08:19:51.430Z,1.53
2019-03-10T08:22:27.090Z,2.07
2019-03-10T08:25:22.352Z,1.63
2019-03-10T08:28:11.661Z,2.07
2019-03-10T08:31:04.009Z,1.63
2019-03-10T08:33:59.381Z,1.90
2019-03-10T08:36:39.676Z,2.17
2019-03-10T08:39:15.983Z,1.87
2019-03-10T08:41:54.767Z,1.97
2019-03-10T08:44:43.898Z,1.50
2019-03-10T08:47:32.910Z,1.50
2019-03-10T08:50:07.665Z,1.60
2019-03-10T08:52:38.392Z,1.67
2019-03-10T08:55:23.766Z,1.60
2019-03-10T08:58:03.738Z,1.30
2019-03-10T09:00:52.948Z,2.33
2019-03-10T09:03:33.793Z,1.50
2019-03-10T09:06:07.241Z,1.80
2019-03-10T09:08:50.478Z,1.90
2019-03-10T09:11:34.964Z,2.37
2019-03-10T09:14:24.343Z,2.27
2019-03-10T09:17:04.329Z,2.10
2019-03-10T09:19:53.102Z,1.90
2019-03-10T09:22:54.841Z,2.43
2019-03-10T09:25:39.928Z,2.10
2019-03-10T09:28:25.318Z,1.77
2019-03-10T09:31:10.236Z,3.80
2019-03-10T09:33:49.184Z,2.00
2019-03-10T09:36:47.876Z,1.87
2019-03-10T09:39:40.563Z,2.00
2019-03-10T09:42:28.481Z,2.17
2019-03-10T09:45:04.960Z,2.20
2019-03-10T09:47:51.378Z,2.50
2019-03-10T09:50:43.716Z,2.33
2019-03-10T09:53:45.019Z,2.03
2019-03-10T09:56:31.539Z,2.57
2019-03-10T09:59:20.598Z,3.03
2019-03-10T10:02:09.427Z,2.27
2019-03-10T10:04:50.057Z,2.27
2019-03-10T10:07:39.601Z,2.80
2019-03-10T10:10:14.201Z,2.93
2019-03-10T10:12:59.099Z,2.50
2019-03-10T10:15:33.833Z,3.17
2019-03-10T10:18:23.993Z,3.20
2019-03-10T10:21:23.177Z,2.70
2019-03-10T10:24:05.418Z,2.17
2019-03-10T10:26:58.361Z,1.83
2019-03-10T10:30:03.627Z,2.03
2019-03-10T10:32:56.072Z,2.00
2019-03-10T10:35:40.852Z,2.17
2019-03-10T10:38:19.281Z,1.57
2019-03-10T10:40:53.353Z,1.20
2019-03-10T10:43:44.339Z,0.90
2019-03-10T10:46:27.004Z,0.80
2019-03-10T10:49:02.283Z,0.90
2019-03-10T10:52:03.146Z,0.90
2019-03-10T10:54:49.384Z,1.07
2019-03-10T10:57:55.133Z,0.80
2019-03-10T11:00:35.978Z,1.07
2019-03-10T11:03:35.098Z,0.70
2019-03-10T11:06:27.707Z,0.80
2019-03-10T11:09:08.084Z,0.53
2019-03-10T11:11:55.797Z,0.70
2019-03-10T11:14:42.817Z,0.70
2019-03-10T11:17:29.646Z,0.60
2019-03-10T11:20:18.671Z,0.90
2019-03-10T11:23:02.418Z,1.00
2019-03-10T11:25:49.738Z,1.00
2019-03-10T11:28:37.887Z,1.20
2019-03-10T11:31:14.395Z,1.10
2019-03-10T11:34:12.605Z,0.77
2019-03-10T11:36:59.848Z,2.23
2019-03-10T11:39:38.561Z,1.87
2019-03-10T11:45:12.362Z,1.90
2019-03-10T11:48:06.936Z,2.00
2019-03-10T11:50:46.480Z,3.00
2019-03-10T11:53:19.758Z,1.70
2019-03-10T11:56:04.741Z,2.40
2019-03-10T11:58:36.975Z,2.19
2019-03-10T12:01:17.561Z,2.17
2019-03-10T12:03:58.750Z,3.03
2019-03-10T12:06:37.660Z,2.33
2019-03-10T12:09:14.833Z,1.83
2019-03-10T12:11:41.548Z,0.83
2019-03-10T12:14:08.675Z,0.60
2019-03-10T12:16:36.294Z,0.40
2019-03-10T12:19:05.982Z,0.50
2019-03-10T12:21:33.468Z,0.70
2019-03-10T12:24:00.749Z,0.70
2019-03-10T12:26:28.451Z,0.30
2019-03-10T12:28:56.483Z,0.30
2019-03-10T12:31:23.546Z,0.30
2019-03-10T12:33:50.623Z,0.40
2019-03-10T12:36:18.098Z,0.30
2019-03-10T12:38:46.461Z,0.40
2019-03-10T12:41:13.222Z,0.40
2019-03-10T12:43:39.710Z,0.40
2019-03-10T12:46:07.704Z,0.60
2019-03-10T12:48:34.313Z,0.40
2019-03-10T12:51:02.140Z,0.70
2019-03-10T12:53:29.108Z,0.60
2019-03-10T12:55:56.171Z,0.60
2019-03-10T12:58:24.126Z,0.60
2019-03-10T13:00:50.872Z,1.57
2019-03-10T13:03:18.521Z,0.53
2019-03-10T13:05:45.219Z,0.70
2019-03-10T13:08:12.753Z,0.80
2019-03-10T13:10:39.557Z,1.23
2019-03-10T13:13:06.621Z,0.60
2019-03-10T13:15:34.563Z,0.47
2019-03-10T13:18:01.380Z,0.70
2019-03-10T13:20:28.829Z,0.50
2019-03-10T13:22:55.530Z,0.60
2019-03-10T13:25:22.270Z,0.60
2019-03-10T13:27:48.961Z,0.40
2019-03-10T13:30:18.378Z,0.87
2019-03-10T13:32:45.463Z,0.70
2019-03-10T13:35:12.506Z,1.10
2019-03-10T13:37:39.170Z,0.97
2019-03-10T13:40:06.019Z,0.50
2019-03-10T13:42:33.916Z,0.80
2019-03-10T13:45:01.819Z,1.43
2019-03-10T13:47:28.561Z,0.87
2019-03-10T13:49:55.412Z,0.80
2019-03-10T13:52:23.170Z,0.80
2019-03-10T13:54:57.702Z,0.83
2019-03-10T13:57:24.929Z,0.73
2019-03-10T13:59:51.711Z,1.30
2019-03-10T14:02:18.779Z,0.70
2019-03-10T14:04:45.953Z,0.60
2019-03-10T14:07:18.598Z,0.90
2019-03-10T14:09:45.855Z,1.17
2019-03-10T14:12:12.777Z,1.33
2019-03-10T14:14:40.223Z,0.50
2019-03-10T14:17:07.232Z,0.80
2019-03-10T14:19:34.163Z,1.37
2019-03-10T14:22:00.923Z,0.80
2019-03-10T14:24:29.162Z,0.77
2019-03-10T14:26:55.934Z,1.40
2019-03-10T14:29:23.568Z,1.27
2019-03-10T14:31:50.262Z,1.20
2019-03-10T14:34:16.993Z,1.00
2019-03-10T14:36:43.747Z,0.87
2019-03-10T14:39:10.574Z,0.90
2019-03-10T14:41:37.332Z,1.30
2019-03-10T14:44:04.078Z,0.90
2019-03-10T14:46:30.887Z,0.90
2019-03-10T14:48:57.574Z,0.90
2019-03-10T14:51:24.273Z,0.97
2019-03-10T14:53:50.955Z,0.90
2019-03-10T14:56:17.562Z,1.00
2019-03-10T14:58:44.472Z,0.90
2019-03-10T15:01:11.760Z,0.90
2019-03-10T15:03:38.483Z,1.20
2019-03-10T15:06:05.023Z,1.10
2019-03-10T15:08:31.761Z,0.80
2019-03-10T15:10:59.162Z,0.80
2019-03-10T15:13:26.749Z,0.90
2019-03-10T15:15:53.588Z,0.97
2019-03-10T15:18:20.708Z,0.83
2019-03-10T15:20:47.645Z,1.30
2019-03-10T15:23:15.541Z,1.10
2019-03-10T15:25:45.465Z,1.13
2019-03-10T15:28:13.138Z,0.90
2019-03-10T15:30:40.050Z,1.10
2019-03-10T15:33:06.776Z,0.90
2019-03-10T15:35:33.863Z,1.47
2019-03-10T15:38:01.698Z,1.00
2019-03-10T15:40:29.783Z,0.80
2019-03-10T15:42:57.906Z,1.10
2019-03-10T15:45:27.799Z,1.40
2019-03-10T15:47:55.507Z,1.37
2019-03-10T15:50:23.097Z,0.97
2019-03-10T15:52:51.210Z,1.27
2019-03-10T15:55:18.704Z,1.23
2019-03-10T15:57:50.243Z,1.27
2019-03-10T16:00:15.637Z,1.47
2019-03-10T16:02:42.460Z,1.57
2019-03-10T16:05:10.103Z,1.23
2019-03-10T16:07:37.081Z,1.07
2019-03-10T16:10:04.005Z,1.43
2019-03-10T16:12:30.569Z,1.03
2019-03-10T16:14:58.251Z,1.23
2019-03-10T16:17:24.925Z,1.10
2019-03-10T16:19:54.220Z,1.40
2019-03-10T16:22:22.172Z,1.80
2019-03-10T16:24:49.088Z,1.43
2019-03-10T16:27:15.674Z,1.00
2019-03-10T16:29:42.318Z,1.30
2019-03-10T16:32:09.087Z,1.60
2019-03-10T16:34:35.844Z,1.00
2019-03-10T16:37:02.782Z,1.17
2019-03-10T16:39:29.458Z,1.17
2019-03-10T16:41:56.746Z,1.17
2019-03-10T16:44:23.462Z,0.70
2019-03-10T16:46:53.194Z,1.10
2019-03-10T16:49:20.161Z,0.77
2019-03-10T16:51:48.065Z,0.57
2019-03-10T16:54:14.826Z,0.60
2019-03-10T16:56:41.590Z,0.50
2019-03-10T16:59:08.255Z,0.80
2019-03-10T17:01:34.877Z,0.70
2019-03-10T17:04:01.470Z,0.60
2019-03-10T17:06:28.467Z,0.70
2019-03-10T17:08:55.061Z,0.60
2019-03-10T17:11:21.828Z,0.60
2019-03-10T17:13:48.653Z,0.53
2019-03-10T17:16:16.435Z,0.80
2019-03-10T17:18:44.553Z,0.70
2019-03-10T17:21:13.253Z,0.93
2019-03-10T17:23:40.076Z,0.47
2019-03-10T17:26:06.682Z,0.50
2019-03-10T17:28:33.402Z,0.70
2019-03-10T17:31:00.098Z,0.83
2019-03-10T17:33:27.084Z,0.57
2019-03-10T17:35:54.476Z,0.60
2019-03-10T17:38:21.350Z,1.63
2019-03-10T17:40:48.188Z,0.57
2019-03-10T17:43:14.708Z,0.60
2019-03-10T17:45:41.568Z,0.53
2019-03-10T17:48:09.249Z,0.50
2019-03-10T17:50:35.810Z,0.60
2019-03-10T17:53:02.420Z,0.53
2019-03-10T17:55:29.066Z,0.20
2019-03-10T17:57:55.683Z,0.83
2019-03-10T18:00:23.292Z,0.40
2019-03-10T18:02:50.110Z,0.30
2019-03-10T18:05:17.028Z,0.43
2019-03-10T18:07:43.678Z,0.60
2019-03-10T18:10:11.755Z,0.40
2019-03-10T18:12:38.413Z,0.70
2019-03-10T18:15:09.063Z,0.23
2019-03-10T18:17:34.524Z,0.53
2019-03-10T18:20:02.155Z,0.30
2019-03-10T18:22:28.866Z,0.60
2019-03-10T18:24:55.756Z,0.70
2019-03-10T18:27:22.354Z,0.50
2019-03-10T18:29:48.941Z,0.50
2019-03-10T18:32:16.004Z,2.10
2019-03-10T18:34:46.744Z,1.50
2019-03-10T18:37:13.356Z,0.20
2019-03-10T18:39:39.844Z,0.60
2019-03-10T18:42:06.448Z,0.40
2019-03-10T18:44:33.314Z,0.40
2019-03-10T18:46:59.898Z,0.57
2019-03-10T18:49:26.709Z,0.50
2019-03-10T18:51:53.351Z,0.30
2019-03-10T18:54:20.111Z,0.43
2019-03-10T18:56:46.769Z,0.67
2019-03-10T18:59:13.670Z,0.50
2019-03-10T19:01:40.656Z,0.40
2019-03-10T19:04:07.148Z,0.40
2019-03-10T19:06:34.401Z,0.30
2019-03-10T19:09:01.667Z,0.40
2019-03-10T19:11:28.745Z,0.60
2019-03-10T19:13:55.977Z,0.30
2019-03-10T19:16:22.856Z,0.63
2019-03-10T19:18:49.908Z,0.30
2019-03-10T19:21:16.914Z,0.47
2019-03-10T19:23:43.944Z,0.40
2019-03-10T19:26:11.531Z,0.30
2019-03-10T19:28:38.439Z,0.30
2019-03-10T19:31:05.507Z,0.30
2019-03-10T19:33:32.321Z,0.10
2019-03-10T19:35:59.179Z,0.13
2019-03-10T19:38:25.782Z,0.13
2019-03-10T19:40:52.663Z,0.40
2019-03-10T19:43:19.345Z,0.87
2019-03-10T19:45:45.869Z,0.23
2019-03-10T19:48:12.799Z,0.10
2019-03-10T19:50:39.482Z,0.20
2019-03-10T19:53:06.530Z,0.40
2019-03-10T19:55:33.450Z,0.10
2019-03-10T19:58:02.109Z,0.20
2019-03-10T20:00:28.870Z,0.20
2019-03-10T20:02:55.585Z,0.37
2019-03-10T20:05:22.867Z,0.60
2019-03-10T20:07:49.810Z,0.20
2019-03-10T20:10:16.798Z,0.30
2019-03-10T20:12:43.666Z,0.20
2019-03-10T20:15:12.214Z,0.20
2019-03-10T20:17:39.160Z,0.20
2019-03-10T20:20:08.220Z,0.80
2019-03-10T20:22:34.903Z,1.10
2019-03-10T20:25:02.655Z,0.67
2019-03-10T20:27:29.518Z,0.20
2019-03-10T20:29:56.402Z,0.20
2019-03-10T20:32:23.580Z,0.20
2019-03-10T20:34:50.229Z,0.60
2019-03-10T20:37:16.800Z,0.40
2019-03-10T20:39:43.389Z,0.50
2019-03-10T20:42:12.207Z,0.40
2019-03-10T20:44:40.481Z,0.23
2019-03-10T20:47:08.592Z,0.40
2019-03-10T20:49:35.374Z,0.30
2019-03-10T20:52:02.405Z,0.60
2019-03-10T20:54:29.199Z,0.20
2019-03-10T20:56:56.130Z,0.30
2019-03-10T20:59:23.206Z,0.13
2019-03-10T21:01:50.135Z,0.27
2019-03-10T21:04:19.439Z,0.20
2019-03-10T21:06:46.305Z,0.20
2019-03-10T21:09:13.509Z,0.30
2019-03-10T21:11:40.624Z,0.30
2019-03-10T21:14:08.534Z,0.20
2019-03-10T21:16:36.012Z,0.10
2019-03-10T21:19:02.790Z,0.20
2019-03-10T21:21:29.606Z,0.43
2019-03-10T21:23:57.413Z,0.30
2019-03-10T21:26:32.637Z,0.60
2019-03-10T21:28:59.634Z,0.93
2019-03-10T21:31:26.787Z,0.30
2019-03-10T21:33:55.374Z,0.60
2019-03-10T21:36:22.626Z,0.50
2019-03-10T21:39:02.802Z,0.40
2019-03-10T21:41:30.914Z,0.30
2019-03-10T21:43:57.986Z,0.47
2019-03-10T21:46:29.105Z,0.30
2019-03-10T21:49:00.514Z,0.40
2019-03-10T21:51:28.265Z,0.20
2019-03-10T21:53:54.787Z,0.23
2019-03-10T21:56:22.680Z,0.23
2019-03-10T21:58:50.616Z,0.30
2019-03-10T22:01:17.251Z,0.50
2019-03-10T22:03:43.814Z,0.40
2019-03-10T22:06:10.831Z,0.40
2019-03-10T22:08:45.961Z,0.20
2019-03-10T22:11:12.534Z,0.33
2019-03-10T22:13:46.484Z,0.20
2019-03-10T22:16:08.023Z,0.43
2019-03-10T22:18:34.668Z,0.40
2019-03-10T22:21:02.244Z,0.47
2019-03-10T22:23:28.798Z,0.53
2019-03-10T22:25:55.441Z,0.40
2019-03-10T22:28:21.933Z,0.43
2019-03-10T22:30:48.470Z,0.60
2019-03-10T22:33:15.246Z,0.50
2019-03-10T22:35:41.866Z,0.30
2019-03-10T22:38:09.437Z,0.40
2019-03-10T22:40:36.040Z,0.23
2019-03-10T22:43:03.780Z,0.20
2019-03-10T22:45:30.328Z,0.10
2019-03-10T22:47:56.872Z,0.30
2019-03-10T22:50:23.360Z,0.43
2019-03-10T22:52:49.956Z,0.20
2019-03-10T22:55:16.736Z,0.30
2019-03-10T22:57:43.460Z,0.20
2019-03-10T23:00:12.512Z,0.80
2019-03-10T23:02:39.178Z,0.30
2019-03-10T23:05:07.130Z,0.40
2019-03-10T23:07:33.708Z,0.50
2019-03-10T23:10:00.328Z,0.40
2019-03-10T23:12:26.865Z,0.90
2019-03-10T23:14:53.444Z,0.40
2019-03-10T23:17:20.178Z,0.60
2019-03-10T23:19:46.685Z,0.47
2019-03-10T23:22:13.299Z,0.60
2019-03-10T23:24:40.083Z,0.70
2019-03-10T23:27:06.649Z,0.70
2019-03-10T23:29:33.162Z,0.70
2019-03-10T23:31:59.999Z,0.70
2019-03-10T23:34:27.816Z,0.80
2019-03-10T23:36:54.647Z,0.70
2019-03-10T23:39:21.212Z,1.00
2019-03-10T23:41:47.751Z,0.83
2019-03-10T23:44:14.269Z,0.87
2019-03-10T23:46:40.894Z,1.83
2019-03-10T23:49:07.425Z,0.80
2019-03-10T23:51:33.948Z,0.70
2019-03-10T23:54:00.481Z,1.10
2019-03-10T23:56:27.200Z,0.77
2019-03-10T23:58:55.076Z,0.53
